createdAt,value
2019-05-29T00:00:18.232Z,1.57
2019-05-29T00:02:47.858Z,1.80
2019-05-29T00:05:18.348Z,1.60
2019-05-29T00:07:48.082Z,1.73
2019-05-29T00:10:18.587Z,1.50
2019-05-29T00:12:48.147Z,1.80
2019-05-29T00:15:18.703Z,1.87
2019-05-29T00:17:48.275Z,1.83
2019-05-29T00:20:18.666Z,1.80
2019-05-29T00:22:48.551Z,1.80
2019-05-29T00:25:18.870Z,1.80
2019-05-29T00:27:48.483Z,1.80
2019-05-29T00:30:18.475Z,1.97
2019-05-29T00:32:47.908Z,1.90
2019-05-29T00:35:17.407Z,1.73
2019-05-29T00:37:46.861Z,1.73
2019-05-29T00:40:17.130Z,2.07
2019-05-29T00:42:46.814Z,1.93
2019-05-29T00:45:17.710Z,1.93
2019-05-29T00:47:47.280Z,1.93
2019-05-29T00:50:18.331Z,2.03
2019-05-29T00:52:47.778Z,1.83
2019-05-29T00:55:18.500Z,1.80
2019-05-29T00:57:48.444Z,1.87
2019-05-29T01:00:17.961Z,1.80
2019-05-29T01:02:47.546Z,1.93
2019-05-29T01:05:18.057Z,1.60
2019-05-29T01:07:47.912Z,1.90
2019-05-29T01:10:18.909Z,1.77
2019-05-29T01:12:48.473Z,2.07
2019-05-29T01:15:19.560Z,1.90
2019-05-29T01:17:49.398Z,1.77
2019-05-29T01:20:19.986Z,2.00
2019-05-29T01:22:49.836Z,1.93
2019-05-29T01:25:19.304Z,2.10
2019-05-29T01:27:48.793Z,1.90
2019-05-29T01:30:19.349Z,2.20
2019-05-29T01:32:49.233Z,2.20
2019-05-29T01:35:19.917Z,1.60
2019-05-29T01:37:49.585Z,1.70
2019-05-29T01:40:24.492Z,2.03
2019-05-29T01:42:50.352Z,1.67
2019-05-29T01:45:19.874Z,1.60
2019-05-29T01:47:49.333Z,1.80
2019-05-29T01:50:19.601Z,1.97
2019-05-29T01:52:49.388Z,1.40
2019-05-29T01:55:19.766Z,1.50
2019-05-29T01:57:49.279Z,1.80
2019-05-29T02:00:20.064Z,2.00
2019-05-29T02:02:49.997Z,2.03
2019-05-29T02:05:20.008Z,1.77
2019-05-29T02:07:49.756Z,1.50
2019-05-29T02:10:20.234Z,1.50
2019-05-29T02:12:49.932Z,1.37
2019-05-29T02:15:27.980Z,1.77
2019-05-29T02:17:51.324Z,1.60
2019-05-29T02:20:21.264Z,1.73
2019-05-29T02:22:50.724Z,1.63
2019-05-29T02:25:22.319Z,1.47
2019-05-29T02:27:52.225Z,1.40
2019-05-29T02:30:25.545Z,1.23
2019-05-29T02:32:54.012Z,1.60
2019-05-29T02:35:24.687Z,1.90
2019-05-29T02:37:54.715Z,2.10
2019-05-29T02:40:26.366Z,2.10
2019-05-29T02:42:55.480Z,2.27
2019-05-29T02:45:49.369Z,1.87
2019-05-29T02:47:56.449Z,1.97
2019-05-29T02:50:26.728Z,1.90
2019-05-29T02:52:57.066Z,1.80
2019-05-29T02:55:26.999Z,2.20
2019-05-29T02:57:57.046Z,2.40
2019-05-29T03:00:54.317Z,2.27
2019-05-29T03:03:26.558Z,2.47
2019-05-29T03:05:57.021Z,2.43
2019-05-29T03:08:27.657Z,2.87
2019-05-29T03:10:57.082Z,2.73
2019-05-29T03:13:27.614Z,2.53
2019-05-29T03:16:09.718Z,2.70
2019-05-29T03:18:30.292Z,2.67
2019-05-29T03:21:00.394Z,2.60
2019-05-29T03:23:31.006Z,2.70
2019-05-29T03:26:01.013Z,3.10
2019-05-29T03:28:32.152Z,2.80
2019-05-29T03:31:01.637Z,3.30
2019-05-29T03:33:38.304Z,3.83
2019-05-29T03:36:02.281Z,4.17
2019-05-29T03:38:32.722Z,4.10
2019-05-29T03:41:02.743Z,4.10
2019-05-29T03:43:33.631Z,3.30
2019-05-29T03:46:03.359Z,3.70
2019-05-29T03:48:34.210Z,3.73
2019-05-29T03:51:03.943Z,3.23
2019-05-29T03:53:35.466Z,2.93
2019-05-29T03:56:04.550Z,3.23
2019-05-29T03:58:35.171Z,3.80
2019-05-29T04:01:05.145Z,4.03
2019-05-29T04:03:35.629Z,4.60
2019-05-29T04:06:05.917Z,4.90
2019-05-29T04:08:35.843Z,5.03
2019-05-29T04:11:07.432Z,4.73
2019-05-29T04:13:38.842Z,3.70
2019-05-29T04:16:09.903Z,4.60
2019-05-29T04:18:40.574Z,4.90
2019-05-29T04:21:12.193Z,4.50
2019-05-29T04:23:43.422Z,4.73
2019-05-29T04:26:15.735Z,4.80
2019-05-29T04:28:45.618Z,5.20
2019-05-29T04:31:15.195Z,4.20
2019-05-29T04:33:44.661Z,4.60
2019-05-29T04:36:14.169Z,4.93
2019-05-29T04:38:43.649Z,4.77
2019-05-29T04:41:13.146Z,4.47
2019-05-29T04:43:42.628Z,5.00
2019-05-29T04:46:12.077Z,5.30
2019-05-29T04:48:41.589Z,5.60
2019-05-29T04:51:11.050Z,5.37
2019-05-29T04:53:40.532Z,5.60
2019-05-29T04:56:09.975Z,5.60
2019-05-29T04:58:39.552Z,5.30
2019-05-29T05:01:09.027Z,5.23
2019-05-29T05:03:39.411Z,5.40
2019-05-29T05:06:09.133Z,5.20
2019-05-29T05:08:39.666Z,5.77
2019-05-29T05:11:11.019Z,5.20
2019-05-29T05:13:40.554Z,5.33
2019-05-29T05:16:10.208Z,4.97
2019-05-29T05:18:40.243Z,4.80
2019-05-29T05:21:10.266Z,4.27
2019-05-29T05:23:40.596Z,4.73
2019-05-29T05:26:10.387Z,4.07
2019-05-29T05:28:43.573Z,4.00
2019-05-29T05:31:11.055Z,3.50
2019-05-29T05:33:41.042Z,3.30
2019-05-29T05:36:10.768Z,3.50
2019-05-29T05:38:41.050Z,3.70
2019-05-29T05:41:11.133Z,3.77
2019-05-29T05:43:41.370Z,3.40
2019-05-29T05:46:11.276Z,3.33
2019-05-29T05:48:41.524Z,3.13
2019-05-29T05:51:11.327Z,3.10
2019-05-29T05:53:41.779Z,2.03
2019-05-29T05:56:11.512Z,1.50
2019-05-29T05:58:42.202Z,1.57
2019-05-29T06:01:12.288Z,1.27
2019-05-29T06:03:42.515Z,1.50
2019-05-29T06:06:12.453Z,1.57
2019-05-29T06:08:42.535Z,1.53
2019-05-29T06:11:12.647Z,1.00
2019-05-29T06:13:42.708Z,1.00
2019-05-29T06:16:12.698Z,1.20
2019-05-29T06:18:43.000Z,0.90
2019-05-29T06:21:13.076Z,0.77
2019-05-29T06:23:43.455Z,0.70
2019-05-29T06:26:13.421Z,0.80
2019-05-29T06:28:43.509Z,1.03
2019-05-29T06:31:13.377Z,0.83
2019-05-29T06:33:43.940Z,1.10
2019-05-29T06:36:13.797Z,1.13
2019-05-29T06:38:44.339Z,1.67
2019-05-29T06:41:14.168Z,2.30
2019-05-29T06:43:44.365Z,1.70
2019-05-29T06:46:14.385Z,2.00
2019-05-29T06:48:56.384Z,1.00
2019-05-29T06:51:15.129Z,1.57
2019-05-29T06:53:44.659Z,1.13
2019-05-29T06:56:14.643Z,1.17
2019-05-29T06:58:44.894Z,1.10
2019-05-29T07:01:14.426Z,0.77
2019-05-29T07:03:44.153Z,0.93
2019-05-29T07:06:14.097Z,1.03
2019-05-29T07:08:47.884Z,0.83
2019-05-29T07:11:14.822Z,0.93
2019-05-29T07:13:47.580Z,1.43
2019-05-29T07:16:15.543Z,0.67
2019-05-29T07:19:20.543Z,0.93
2019-05-29T07:21:16.236Z,0.73
2019-05-29T07:23:47.030Z,0.80
2019-05-29T07:26:16.919Z,0.90
2019-05-29T07:29:02.068Z,0.97
2019-05-29T07:31:17.621Z,1.10
2019-05-29T07:33:47.404Z,1.20
2019-05-29T07:36:17.081Z,0.80
2019-05-29T07:39:02.191Z,0.60
2019-05-29T07:41:17.848Z,1.00
2019-05-29T07:43:48.125Z,0.70
2019-05-29T07:46:17.878Z,1.27
2019-05-29T07:48:49.620Z,0.90
2019-05-29T07:51:18.601Z,3.40
2019-05-29T07:53:48.840Z,1.30
2019-05-29T07:56:22.689Z,0.70
2019-05-29T07:59:01.820Z,0.80
2019-05-29T08:01:21.340Z,0.80
2019-05-29T08:03:50.856Z,0.97
2019-05-29T08:06:20.339Z,0.80
2019-05-29T08:08:49.861Z,1.00
2019-05-29T08:11:19.394Z,0.80
2019-05-29T08:13:50.042Z,0.90
2019-05-29T08:16:19.663Z,0.93
2019-05-29T08:18:52.793Z,0.90
2019-05-29T08:21:20.378Z,0.70
2019-05-29T08:23:50.844Z,0.90
2019-05-29T08:26:20.588Z,0.73
2019-05-29T08:28:51.151Z,0.93
2019-05-29T08:31:20.824Z,0.60
2019-05-29T08:33:51.263Z,0.70
2019-05-29T08:36:21.210Z,1.47
2019-05-29T08:38:51.773Z,0.87
2019-05-29T08:41:21.605Z,0.90
2019-05-29T08:43:51.104Z,1.07
2019-05-29T08:46:20.612Z,0.80
2019-05-29T08:48:50.212Z,0.70
2019-05-29T08:51:19.773Z,0.80
2019-05-29T08:53:51.865Z,0.87
2019-05-29T08:56:20.454Z,0.90
2019-05-29T08:58:50.641Z,0.63
2019-05-29T09:01:20.330Z,1.40
2019-05-29T09:03:51.199Z,0.73
2019-05-29T09:06:21.157Z,0.90
2019-05-29T09:08:54.040Z,0.90
2019-05-29T09:11:22.197Z,1.40
2019-05-29T09:13:51.763Z,1.10
2019-05-29T09:16:21.858Z,1.47
2019-05-29T09:18:51.523Z,1.00
2019-05-29T09:21:21.036Z,0.70
2019-05-29T09:23:50.570Z,0.83
2019-05-29T09:26:24.206Z,1.10
2019-05-29T09:28:51.313Z,0.97
2019-05-29T09:31:21.951Z,0.60
2019-05-29T09:33:51.726Z,1.03
2019-05-29T09:36:22.609Z,1.20
2019-05-29T09:38:52.610Z,1.30
2019-05-29T09:41:23.609Z,0.90
2019-05-29T09:43:58.929Z,1.02
2019-05-29T09:46:25.800Z,1.07
2019-05-29T09:48:55.477Z,1.10
2019-05-29T09:51:25.039Z,0.70
2019-05-29T09:53:55.914Z,1.00
2019-05-29T09:56:25.709Z,1.17
2019-05-29T09:58:56.397Z,1.20
2019-05-29T10:01:26.441Z,0.83
2019-05-29T10:03:57.510Z,0.93
2019-05-29T10:06:27.088Z,1.00
2019-05-29T10:08:57.882Z,0.70
2019-05-29T10:11:27.549Z,0.95
2019-05-29T10:13:58.676Z,0.80
2019-05-29T10:16:28.250Z,0.72
2019-05-29T10:18:59.779Z,0.78
2019-05-29T10:21:39.011Z,0.90
2019-05-29T10:24:01.250Z,0.70
2019-05-29T10:26:31.238Z,0.88
2019-05-29T10:29:08.176Z,1.00
2019-05-29T10:31:31.955Z,1.17
2019-05-29T10:34:01.600Z,0.70
2019-05-29T10:36:31.154Z,0.78
2019-05-29T10:39:00.672Z,0.90
2019-05-29T10:41:30.196Z,0.80
2019-05-29T10:43:59.725Z,1.10
2019-05-29T10:46:29.264Z,1.17
2019-05-29T10:48:58.764Z,0.98
2019-05-29T10:51:28.491Z,0.80
2019-05-29T10:53:59.243Z,0.65
2019-05-29T10:56:28.868Z,1.00
2019-05-29T10:59:00.001Z,0.90
2019-05-29T11:01:29.556Z,0.62
2019-05-29T11:03:59.142Z,0.70
2019-05-29T11:06:28.701Z,0.72
2019-05-29T11:08:58.219Z,1.00
2019-05-29T11:11:27.758Z,0.80
2019-05-29T11:13:57.296Z,2.05
2019-05-29T11:16:26.823Z,0.80
2019-05-29T11:18:57.367Z,0.70
2019-05-29T11:21:27.144Z,0.78
2019-05-29T11:23:58.048Z,1.07
2019-05-29T11:26:29.746Z,0.90
2019-05-29T11:28:59.272Z,0.80
2019-05-29T11:31:28.796Z,0.78
2019-05-29T11:33:59.224Z,0.50
2019-05-29T11:36:28.963Z,0.47
2019-05-29T11:39:03.246Z,0.55
2019-05-29T11:41:29.755Z,0.70
2019-05-29T11:43:59.280Z,0.40
2019-05-29T11:46:28.767Z,0.70
2019-05-29T11:48:59.374Z,0.80
2019-05-29T11:51:29.011Z,1.00
2019-05-29T11:53:59.604Z,0.88
2019-05-29T11:56:29.189Z,1.00
2019-05-29T11:58:59.016Z,0.65
2019-05-29T12:01:28.709Z,0.70
2019-05-29T12:04:22.024Z,0.60
2019-05-29T12:06:29.421Z,0.30
2019-05-29T12:08:59.867Z,0.60
2019-05-29T12:11:29.701Z,0.85
2019-05-29T12:14:00.566Z,0.57
2019-05-29T12:16:30.401Z,0.50
2019-05-29T12:18:59.958Z,0.50
2019-05-29T12:21:29.515Z,0.70
2019-05-29T12:24:00.190Z,0.50
2019-05-29T12:26:29.776Z,0.53
2019-05-29T12:29:08.637Z,0.70
2019-05-29T12:31:30.463Z,0.50
2019-05-29T12:34:10.267Z,0.98
2019-05-29T12:36:31.228Z,0.60
2019-05-29T12:39:02.213Z,0.65
2019-05-29T12:41:31.943Z,0.90
2019-05-29T12:44:01.662Z,0.90
2019-05-29T12:46:34.251Z,0.60
2019-05-29T12:49:03.819Z,0.80
2019-05-29T12:51:33.375Z,0.70
2019-05-29T12:54:04.983Z,0.72
2019-05-29T12:56:34.026Z,0.60
2019-05-29T12:59:04.641Z,0.60
2019-05-29T13:01:34.347Z,0.70
2019-05-29T13:04:04.744Z,0.50
2019-05-29T13:06:34.520Z,0.42
2019-05-29T13:09:05.844Z,0.45
2019-05-29T13:11:35.387Z,0.72
2019-05-29T13:14:05.090Z,0.60
2019-05-29T13:16:38.387Z,0.65
2019-05-29T13:19:07.835Z,0.80
2019-05-29T13:21:37.331Z,1.00
2019-05-29T13:24:11.288Z,0.65
2019-05-29T13:26:38.002Z,0.60
2019-05-29T13:29:07.527Z,0.90
2019-05-29T13:31:37.036Z,0.45
2019-05-29T13:34:07.203Z,0.78
2019-05-29T13:36:36.995Z,0.78
2019-05-29T13:39:08.290Z,0.70
2019-05-29T13:41:38.168Z,1.17
2019-05-29T13:44:07.692Z,0.78
2019-05-29T13:46:37.174Z,0.90
2019-05-29T13:49:07.149Z,0.55
2019-05-29T13:51:36.976Z,0.60
2019-05-29T13:54:13.334Z,0.80
2019-05-29T13:56:37.655Z,0.70
2019-05-29T13:59:08.298Z,0.78
2019-05-29T14:01:37.955Z,0.80
2019-05-29T14:04:08.598Z,0.65
2019-05-29T14:06:38.282Z,0.90
2019-05-29T14:09:09.908Z,0.60
2019-05-29T14:11:40.121Z,0.70
2019-05-29T14:14:12.934Z,0.80
2019-05-29T14:16:41.387Z,0.80
2019-05-29T14:19:11.569Z,0.85
2019-05-29T14:21:41.739Z,0.70
2019-05-29T14:24:26.843Z,0.70
2019-05-29T14:26:43.003Z,0.95
2019-05-29T14:29:12.891Z,0.90
2019-05-29T14:31:42.796Z,0.65
2019-05-29T14:34:13.453Z,0.60
2019-05-29T14:36:43.451Z,0.70
2019-05-29T14:39:12.971Z,3.60
2019-05-29T14:41:42.941Z,0.70
2019-05-29T14:44:12.653Z,0.68
2019-05-29T14:46:42.151Z,0.42
2019-05-29T14:49:13.369Z,0.85
2019-05-29T14:51:43.195Z,0.93
2019-05-29T14:54:13.205Z,0.60
2019-05-29T14:56:43.329Z,0.60
2019-05-29T14:59:13.814Z,0.70
2019-05-29T15:01:44.002Z,0.88
2019-05-29T15:04:15.851Z,0.88
2019-05-29T15:06:46.627Z,1.00
2019-05-29T15:09:16.891Z,0.75
2019-05-29T15:11:46.994Z,0.60
2019-05-29T15:14:18.184Z,0.65
2019-05-29T15:16:50.405Z,0.65
2019-05-29T15:19:21.401Z,0.70
2019-05-29T15:21:51.889Z,0.80
2019-05-29T15:24:22.048Z,0.90
2019-05-29T15:26:53.412Z,0.60
2019-05-29T15:29:22.947Z,0.70
2019-05-29T15:31:52.460Z,0.85
2019-05-29T15:34:22.382Z,0.40
2019-05-29T15:36:52.311Z,0.60
2019-05-29T15:39:22.690Z,0.78
2019-05-29T15:41:52.671Z,0.82
2019-05-29T15:44:22.819Z,0.47
2019-05-29T15:46:52.858Z,0.50
2019-05-29T15:49:23.535Z,0.50
2019-05-29T15:51:53.046Z,0.37
2019-05-29T15:54:23.612Z,0.93
2019-05-29T15:56:55.276Z,0.72
2019-05-29T15:59:24.855Z,0.85
2019-05-29T16:01:55.409Z,0.50
2019-05-29T16:04:25.063Z,0.50
2019-05-29T16:06:55.354Z,0.62
2019-05-29T16:09:25.163Z,0.60
2019-05-29T16:11:55.282Z,0.50
2019-05-29T16:14:24.844Z,0.20
2019-05-29T16:16:54.353Z,0.30
2019-05-29T16:19:24.114Z,0.50
2019-05-29T16:21:56.420Z,0.65
2019-05-29T16:24:25.970Z,0.50
2019-05-29T16:27:07.977Z,0.60
2019-05-29T16:29:27.335Z,0.95
2019-05-29T16:31:57.381Z,0.80
2019-05-29T16:34:27.135Z,0.65
2019-05-29T16:36:56.608Z,0.62
2019-05-29T16:39:26.194Z,0.88
2019-05-29T16:41:55.673Z,0.82
2019-05-29T16:44:29.290Z,0.75
2019-05-29T16:46:57.121Z,1.07
2019-05-29T16:49:26.608Z,0.50
2019-05-29T16:51:56.153Z,1.00
2019-05-29T16:54:26.325Z,1.47
2019-05-29T16:56:55.831Z,1.00
2019-05-29T16:59:29.482Z,1.30
2019-05-29T17:01:56.628Z,1.30
2019-05-29T17:04:28.183Z,0.88
2019-05-29T17:06:57.854Z,1.12
2019-05-29T17:09:27.331Z,0.57
2019-05-29T17:11:56.842Z,0.65
2019-05-29T17:14:26.335Z,0.82
2019-05-29T17:16:56.829Z,0.93
2019-05-29T17:19:26.361Z,0.62
2019-05-29T17:21:56.099Z,0.60
2019-05-29T17:24:26.195Z,0.85
2019-05-29T17:26:55.829Z,0.50
2019-05-29T17:29:25.614Z,0.80
2019-05-29T17:31:56.008Z,0.70
2019-05-29T17:34:26.207Z,0.78
2019-05-29T17:36:55.818Z,0.90
2019-05-29T17:39:25.588Z,1.10
2019-05-29T17:41:55.388Z,1.00
2019-05-29T17:44:25.690Z,0.80
2019-05-29T17:46:55.660Z,1.22
2019-05-29T17:49:32.780Z,0.90
2019-05-29T17:51:56.717Z,0.95
2019-05-29T17:54:27.197Z,0.80
2019-05-29T17:56:57.379Z,0.85
2019-05-29T17:59:27.197Z,1.00
2019-05-29T18:01:56.894Z,0.80
2019-05-29T18:04:26.841Z,0.90
2019-05-29T18:06:56.744Z,0.90
2019-05-29T18:09:28.816Z,1.07
2019-05-29T18:11:57.833Z,0.90
2019-05-29T18:14:27.576Z,0.62
2019-05-29T18:16:57.330Z,0.72
2019-05-29T18:19:28.208Z,0.80
2019-05-29T18:22:00.439Z,0.72
2019-05-29T18:24:34.481Z,0.60
2019-05-29T18:27:08.745Z,0.88
2019-05-29T18:29:39.359Z,0.70
2019-05-29T18:32:12.024Z,0.85
2019-05-29T18:34:56.428Z,0.55
2019-05-29T18:37:30.077Z,0.90
2019-05-29T18:40:00.786Z,0.70
2019-05-29T18:42:36.044Z,0.70
2019-05-29T18:45:19.593Z,0.85
2019-05-29T18:47:38.144Z,1.25
2019-05-29T18:50:10.476Z,0.80
2019-05-29T18:52:41.692Z,0.62
2019-05-29T18:55:14.339Z,0.53
2019-05-29T18:57:44.203Z,0.68
2019-05-29T19:00:15.810Z,0.80
2019-05-29T19:02:45.601Z,0.70
2019-05-29T19:05:18.017Z,1.10
2019-05-29T19:07:48.024Z,0.90
2019-05-29T19:10:19.991Z,1.00
2019-05-29T19:12:50.314Z,0.90
2019-05-29T19:15:20.306Z,0.90
2019-05-29T19:17:53.940Z,1.00
2019-05-29T19:20:26.276Z,0.80
2019-05-29T19:22:57.254Z,0.90
2019-05-29T19:25:26.882Z,0.98
2019-05-29T19:27:56.501Z,1.10
2019-05-29T19:30:26.945Z,0.90
2019-05-29T19:32:59.061Z,1.25
2019-05-29T19:35:29.613Z,1.17
2019-05-29T19:38:00.937Z,1.07
2019-05-29T19:40:32.277Z,1.17
2019-05-29T19:43:06.056Z,1.22
2019-05-29T19:45:37.233Z,0.90
2019-05-29T19:48:08.892Z,1.00
2019-05-29T19:50:38.572Z,1.10
2019-05-29T19:53:08.311Z,1.53
2019-05-29T19:55:42.307Z,1.27
2019-05-29T19:58:12.282Z,1.47
2019-05-29T20:00:56.009Z,1.30
2019-05-29T20:07:37.318Z,1.10
2019-05-29T20:10:06.777Z,1.30
2019-05-29T20:12:37.909Z,1.30
2019-05-29T20:15:08.535Z,1.30
2019-05-29T20:17:38.493Z,1.10
2019-05-29T20:20:07.893Z,1.30
2019-05-29T20:22:38.926Z,1.20
2019-05-29T20:25:08.509Z,1.30
2019-05-29T20:27:38.657Z,1.27
2019-05-29T20:30:10.530Z,1.37
2019-05-29T20:32:40.392Z,1.37
2019-05-29T20:35:10.464Z,1.40
2019-05-29T20:37:44.097Z,1.60
2019-05-29T20:40:44.233Z,1.10
2019-05-29T20:43:46.737Z,1.30
2019-05-29T20:46:20.323Z,1.43
2019-05-29T20:49:17.070Z,1.33
2019-05-29T20:51:50.119Z,1.33
2019-05-29T20:54:58.550Z,1.40
2019-05-29T20:57:59.902Z,1.40
2019-05-29T21:03:51.887Z,1.80
2019-05-29T21:07:07.953Z,1.90
2019-05-29T21:09:55.962Z,1.37
2019-05-29T21:13:01.283Z,1.70
2019-05-29T21:16:35.517Z,1.50
2019-05-29T21:19:34.702Z,1.30
2019-05-29T21:22:04.611Z,1.20
2019-05-29T21:25:42.895Z,1.50
2019-05-29T21:28:55.384Z,1.40
2019-05-29T21:32:22.094Z,1.57
2019-05-29T21:37:57.777Z,1.27
2019-05-29T21:40:52.600Z,1.60
2019-05-29T21:43:42.672Z,1.47
2019-05-29T21:46:22.767Z,1.70
2019-05-29T21:52:52.644Z,1.50
2019-05-29T21:55:39.481Z,1.50
2019-05-29T22:05:28.323Z,1.30
2019-05-29T22:07:57.821Z,1.80
2019-05-29T22:10:27.328Z,1.33
2019-05-29T22:12:57.028Z,1.53
2019-05-29T22:15:27.892Z,1.80
2019-05-29T22:17:57.421Z,1.53
2019-05-29T22:20:27.110Z,1.47
2019-05-29T22:22:57.218Z,1.50
2019-05-29T22:25:26.559Z,1.53
2019-05-29T22:27:57.362Z,1.93
2019-05-29T22:30:27.738Z,1.60
2019-05-29T22:32:59.581Z,1.60
2019-05-29T22:35:30.460Z,1.97
2019-05-29T22:38:01.858Z,1.43
2019-05-29T22:40:33.473Z,1.30
2019-05-29T22:43:03.480Z,1.60
2019-05-29T22:45:32.585Z,1.50
